sensor_id;sensor_type;location;lat;lon;timestamp;P1;durP1;ratioP1;P2;durP2;ratioP2
32693;SDS011;19084;44.716;10.218;2022-10-16T00:02:27;14.55;;;10.25;;
32693;SDS011;19084;44.716;10.218;2022-10-16T00:05:00;18.83;;;10.55;;
32693;SDS011;19084;44.716;10.218;2022-10-16T00:07:32;16.75;;;9.48;;
32693;SDS011;19084;44.716;10.218;2022-10-16T00:10:05;16.80;;;10.18;;
32693;SDS011;19084;44.716;10.218;2022-10-16T00:12:38;14.98;;;9.55;;
32693;SDS011;19084;44.716;10.218;2022-10-16T00:15:11;13.07;;;9.95;;
32693;SDS011;19084;44.716;10.218;2022-10-16T00:17:44;16.70;;;9.95;;
32693;SDS011;19084;44.716;10.218;2022-10-16T00:20:16;12.55;;;8.65;;
32693;SDS011;19084;44.716;10.218;2022-10-16T00:22:49;15.93;;;9.10;;
32693;SDS011;19084;44.716;10.218;2022-10-16T00:25:22;15.40;;;9.57;;
32693;SDS011;19084;44.716;10.218;2022-10-16T00:27:54;13.98;;;9.27;;
32693;SDS011;19084;44.716;10.218;2022-10-16T00:30:27;19.23;;;9.00;;
32693;SDS011;19084;44.716;10.218;2022-10-16T00:33:00;15.80;;;8.48;;
32693;SDS011;19084;44.716;10.218;2022-10-16T00:35:33;11.65;;;8.05;;
32693;SDS011;19084;44.716;10.218;2022-10-16T00:38:06;10.27;;;7.20;;
32693;SDS011;19084;44.716;10.218;2022-10-16T00:40:38;12.75;;;8.23;;
32693;SDS011;19084;44.716;10.218;2022-10-16T00:43:13;11.82;;;8.32;;
32693;SDS011;19084;44.716;10.218;2022-10-16T00:46:08;14.70;;;8.32;;
32693;SDS011;19084;44.716;10.218;2022-10-16T00:48:45;14.68;;;8.25;;
32693;SDS011;19084;44.716;10.218;2022-10-16T00:51:23;12.15;;;7.82;;
32693;SDS011;19084;44.716;10.218;2022-10-16T00:54:01;14.57;;;7.90;;
32693;SDS011;19084;44.716;10.218;2022-10-16T00:56:35;14.10;;;7.82;;
32693;SDS011;19084;44.716;10.218;2022-10-16T00:59:11;13.48;;;7.93;;
32693;SDS011;19084;44.716;10.218;2022-10-16T01:01:48;15.23;;;8.02;;
32693;SDS011;19084;44.716;10.218;2022-10-16T01:04:21;14.02;;;7.63;;
32693;SDS011;19084;44.716;10.218;2022-10-16T01:09:44;12.60;;;7.63;;
32693;SDS011;19084;44.716;10.218;2022-10-16T01:12:29;11.65;;;6.72;;
32693;SDS011;19084;44.716;10.218;2022-10-16T01:17:53;13.48;;;6.93;;
32693;SDS011;19084;44.716;10.218;2022-10-16T01:20:33;11.20;;;7.10;;
32693;SDS011;19084;44.716;10.218;2022-10-16T01:31:29;11.38;;;6.28;;
32693;SDS011;19084;44.716;10.218;2022-10-16T01:34:08;13.13;;;7.38;;
32693;SDS011;19084;44.716;10.218;2022-10-16T01:36:49;13.90;;;6.28;;
32693;SDS011;19084;44.716;10.218;2022-10-16T01:39:28;10.95;;;6.55;;
32693;SDS011;19084;44.716;10.218;2022-10-16T01:42:06;11.70;;;6.32;;
32693;SDS011;19084;44.716;10.218;2022-10-16T01:44:43;12.55;;;6.60;;
32693;SDS011;19084;44.716;10.218;2022-10-16T01:47:18;13.68;;;6.57;;
32693;SDS011;19084;44.716;10.218;2022-10-16T01:49:55;11.27;;;6.20;;
32693;SDS011;19084;44.716;10.218;2022-10-16T01:52:32;10.88;;;5.93;;
32693;SDS011;19084;44.716;10.218;2022-10-16T01:55:09;12.68;;;6.82;;
32693;SDS011;19084;44.716;10.218;2022-10-16T01:57:46;10.88;;;6.55;;
32693;SDS011;19084;44.716;10.218;2022-10-16T02:00:21;14.52;;;8.13;;
32693;SDS011;19084;44.716;10.218;2022-10-16T02:02:55;13.00;;;7.40;;
32693;SDS011;19084;44.716;10.218;2022-10-16T02:05:31;12.87;;;7.17;;
32693;SDS011;19084;44.716;10.218;2022-10-16T02:08:20;13.57;;;7.70;;
32693;SDS011;19084;44.716;10.218;2022-10-16T02:10:56;15.10;;;8.48;;
32693;SDS011;19084;44.716;10.218;2022-10-16T02:13:31;12.18;;;7.70;;
32693;SDS011;19084;44.716;10.218;2022-10-16T02:16:08;15.15;;;7.70;;
32693;SDS011;19084;44.716;10.218;2022-10-16T02:18:42;10.38;;;7.22;;
32693;SDS011;19084;44.716;10.218;2022-10-16T02:21:19;11.95;;;7.75;;
32693;SDS011;19084;44.716;10.218;2022-10-16T02:24:02;14.80;;;7.60;;
32693;SDS011;19084;44.716;10.218;2022-10-16T02:26:41;11.43;;;7.55;;
32693;SDS011;19084;44.716;10.218;2022-10-16T02:29:23;10.47;;;6.73;;
32693;SDS011;19084;44.716;10.218;2022-10-16T02:31:59;17.50;;;6.88;;
32693;SDS011;19084;44.716;10.218;2022-10-16T02:34:35;16.52;;;7.55;;
32693;SDS011;19084;44.716;10.218;2022-10-16T02:37:09;12.88;;;7.75;;
32693;SDS011;19084;44.716;10.218;2022-10-16T02:39:43;11.57;;;6.95;;
32693;SDS011;19084;44.716;10.218;2022-10-16T02:42:17;15.40;;;6.57;;
32693;SDS011;19084;44.716;10.218;2022-10-16T02:44:50;13.32;;;5.72;;
32693;SDS011;19084;44.716;10.218;2022-10-16T02:47:23;11.18;;;6.30;;
32693;SDS011;19084;44.716;10.218;2022-10-16T02:49:55;10.20;;;6.03;;
32693;SDS011;19084;44.716;10.218;2022-10-16T02:52:28;11.90;;;6.35;;
32693;SDS011;19084;44.716;10.218;2022-10-16T02:55:01;13.32;;;6.20;;
32693;SDS011;19084;44.716;10.218;2022-10-16T02:57:33;8.82;;;5.85;;
32693;SDS011;19084;44.716;10.218;2022-10-16T03:00:10;10.38;;;6.15;;
32693;SDS011;19084;44.716;10.218;2022-10-16T03:02:45;10.48;;;6.43;;
32693;SDS011;19084;44.716;10.218;2022-10-16T03:05:19;10.82;;;5.88;;
32693;SDS011;19084;44.716;10.218;2022-10-16T03:07:51;12.73;;;6.38;;
32693;SDS011;19084;44.716;10.218;2022-10-16T03:10:24;10.27;;;6.18;;
32693;SDS011;19084;44.716;10.218;2022-10-16T03:12:57;10.55;;;6.35;;
32693;SDS011;19084;44.716;10.218;2022-10-16T03:15:29;10.18;;;5.78;;
32693;SDS011;19084;44.716;10.218;2022-10-16T03:18:02;9.13;;;6.00;;
32693;SDS011;19084;44.716;10.218;2022-10-16T03:20:34;10.80;;;6.32;;
32693;SDS011;19084;44.716;10.218;2022-10-16T03:23:07;12.13;;;6.10;;
32693;SDS011;19084;44.716;10.218;2022-10-16T03:25:40;11.48;;;6.25;;
32693;SDS011;19084;44.716;10.218;2022-10-16T03:28:13;10.38;;;6.53;;
32693;SDS011;19084;44.716;10.218;2022-10-16T03:30:45;9.65;;;6.15;;
32693;SDS011;19084;44.716;10.218;2022-10-16T03:33:18;11.82;;;5.93;;
32693;SDS011;19084;44.716;10.218;2022-10-16T03:35:51;11.23;;;5.90;;
32693;SDS011;19084;44.716;10.218;2022-10-16T03:38:25;9.43;;;5.65;;
32693;SDS011;19084;44.716;10.218;2022-10-16T03:40:57;12.07;;;5.68;;
32693;SDS011;19084;44.716;10.218;2022-10-16T03:43:30;9.88;;;5.75;;
32693;SDS011;19084;44.716;10.218;2022-10-16T03:46:03;9.70;;;5.75;;
32693;SDS011;19084;44.716;10.218;2022-10-16T03:48:36;10.93;;;4.68;;
32693;SDS011;19084;44.716;10.218;2022-10-16T03:51:08;11.68;;;7.50;;
32693;SDS011;19084;44.716;10.218;2022-10-16T03:53:41;9.90;;;5.30;;
32693;SDS011;19084;44.716;10.218;2022-10-16T03:56:13;12.65;;;5.43;;
32693;SDS011;19084;44.716;10.218;2022-10-16T03:58:46;9.10;;;5.32;;
32693;SDS011;19084;44.716;10.218;2022-10-16T04:01:19;8.77;;;5.03;;
32693;SDS011;19084;44.716;10.218;2022-10-16T04:03:51;9.40;;;4.78;;
32693;SDS011;19084;44.716;10.218;2022-10-16T04:06:24;10.75;;;5.47;;
32693;SDS011;19084;44.716;10.218;2022-10-16T04:08:57;7.63;;;5.30;;
32693;SDS011;19084;44.716;10.218;2022-10-16T04:11:29;10.32;;;5.40;;
32693;SDS011;19084;44.716;10.218;2022-10-16T04:14:02;9.13;;;5.32;;
32693;SDS011;19084;44.716;10.218;2022-10-16T04:16:35;9.75;;;5.20;;
32693;SDS011;19084;44.716;10.218;2022-10-16T04:19:08;9.25;;;5.47;;
32693;SDS011;19084;44.716;10.218;2022-10-16T04:21:42;11.15;;;5.30;;
32693;SDS011;19084;44.716;10.218;2022-10-16T04:24:14;10.85;;;5.10;;
32693;SDS011;19084;44.716;10.218;2022-10-16T04:26:47;10.70;;;5.00;;
32693;SDS011;19084;44.716;10.218;2022-10-16T04:29:19;10.20;;;5.40;;
32693;SDS011;19084;44.716;10.218;2022-10-16T04:31:52;15.38;;;5.30;;
32693;SDS011;19084;44.716;10.218;2022-10-16T04:34:24;10.85;;;5.22;;
32693;SDS011;19084;44.716;10.218;2022-10-16T04:36:57;9.25;;;5.30;;
32693;SDS011;19084;44.716;10.218;2022-10-16T04:39:29;12.07;;;5.28;;
32693;SDS011;19084;44.716;10.218;2022-10-16T04:42:02;9.90;;;5.40;;
32693;SDS011;19084;44.716;10.218;2022-10-16T04:44:34;12.30;;;4.50;;
32693;SDS011;19084;44.716;10.218;2022-10-16T04:47:07;11.15;;;4.95;;
32693;SDS011;19084;44.716;10.218;2022-10-16T04:49:40;7.97;;;4.50;;
32693;SDS011;19084;44.716;10.218;2022-10-16T04:52:13;9.50;;;5.00;;
32693;SDS011;19084;44.716;10.218;2022-10-16T04:54:45;11.43;;;5.43;;
32693;SDS011;19084;44.716;10.218;2022-10-16T04:57:18;9.18;;;5.10;;
32693;SDS011;19084;44.716;10.218;2022-10-16T04:59:51;10.73;;;5.47;;
32693;SDS011;19084;44.716;10.218;2022-10-16T05:02:23;7.82;;;5.32;;
32693;SDS011;19084;44.716;10.218;2022-10-16T05:04:56;8.75;;;5.20;;
32693;SDS011;19084;44.716;10.218;2022-10-16T05:07:29;8.68;;;5.78;;
32693;SDS011;19084;44.716;10.218;2022-10-16T05:10:01;9.20;;;5.57;;
32693;SDS011;19084;44.716;10.218;2022-10-16T05:12:34;9.90;;;5.90;;
32693;SDS011;19084;44.716;10.218;2022-10-16T05:15:06;10.88;;;6.25;;
32693;SDS011;19084;44.716;10.218;2022-10-16T05:17:40;14.25;;;6.55;;
32693;SDS011;19084;44.716;10.218;2022-10-16T05:20:15;12.82;;;6.43;;
32693;SDS011;19084;44.716;10.218;2022-10-16T05:22:48;12.68;;;6.80;;
32693;SDS011;19084;44.716;10.218;2022-10-16T05:25:21;12.13;;;6.65;;
32693;SDS011;19084;44.716;10.218;2022-10-16T05:27:53;14.07;;;7.88;;
32693;SDS011;19084;44.716;10.218;2022-10-16T05:30:25;16.52;;;7.50;;
32693;SDS011;19084;44.716;10.218;2022-10-16T05:32:58;13.80;;;7.22;;
32693;SDS011;19084;44.716;10.218;2022-10-16T05:35:31;11.45;;;7.28;;
32693;SDS011;19084;44.716;10.218;2022-10-16T05:38:03;10.25;;;7.13;;
32693;SDS011;19084;44.716;10.218;2022-10-16T05:40:36;14.95;;;7.35;;
32693;SDS011;19084;44.716;10.218;2022-10-16T05:43:09;11.93;;;8.02;;
32693;SDS011;19084;44.716;10.218;2022-10-16T05:45:42;13.35;;;8.70;;
32693;SDS011;19084;44.716;10.218;2022-10-16T05:48:14;13.10;;;7.85;;
32693;SDS011;19084;44.716;10.218;2022-10-16T05:50:47;12.82;;;7.75;;
32693;SDS011;19084;44.716;10.218;2022-10-16T05:53:19;14.98;;;8.93;;
32693;SDS011;19084;44.716;10.218;2022-10-16T05:55:57;16.42;;;8.90;;
32693;SDS011;19084;44.716;10.218;2022-10-16T05:58:31;14.85;;;8.55;;
32693;SDS011;19084;44.716;10.218;2022-10-16T06:01:07;15.82;;;8.98;;
32693;SDS011;19084;44.716;10.218;2022-10-16T06:03:44;13.38;;;9.20;;
32693;SDS011;19084;44.716;10.218;2022-10-16T06:06:18;13.45;;;8.57;;
32693;SDS011;19084;44.716;10.218;2022-10-16T06:08:53;11.18;;;8.05;;
32693;SDS011;19084;44.716;10.218;2022-10-16T06:11:27;11.82;;;8.45;;
32693;SDS011;19084;44.716;10.218;2022-10-16T06:14:03;15.45;;;8.73;;
32693;SDS011;19084;44.716;10.218;2022-10-16T06:16:38;15.02;;;8.13;;
32693;SDS011;19084;44.716;10.218;2022-10-16T06:19:11;13.75;;;7.72;;
32693;SDS011;19084;44.716;10.218;2022-10-16T06:21:44;16.77;;;8.32;;
32693;SDS011;19084;44.716;10.218;2022-10-16T06:24:17;13.65;;;8.45;;
32693;SDS011;19084;44.716;10.218;2022-10-16T06:26:49;16.60;;;8.57;;
32693;SDS011;19084;44.716;10.218;2022-10-16T06:29:22;16.92;;;8.45;;
32693;SDS011;19084;44.716;10.218;2022-10-16T06:31:54;14.98;;;8.45;;
32693;SDS011;19084;44.716;10.218;2022-10-16T06:34:27;13.85;;;8.52;;
32693;SDS011;19084;44.716;10.218;2022-10-16T06:36:59;12.40;;;8.30;;
32693;SDS011;19084;44.716;10.218;2022-10-16T06:39:32;12.88;;;8.27;;
32693;SDS011;19084;44.716;10.218;2022-10-16T06:42:05;12.73;;;8.50;;
32693;SDS011;19084;44.716;10.218;2022-10-16T06:44:40;14.45;;;9.15;;
32693;SDS011;19084;44.716;10.218;2022-10-16T06:47:13;11.68;;;7.80;;
32693;SDS011;19084;44.716;10.218;2022-10-16T06:49:45;14.48;;;7.75;;
32693;SDS011;19084;44.716;10.218;2022-10-16T06:52:27;14.25;;;8.45;;
32693;SDS011;19084;44.716;10.218;2022-10-16T06:57:32;14.95;;;8.20;;
32693;SDS011;19084;44.716;10.218;2022-10-16T07:00:05;17.05;;;8.43;;
32693;SDS011;19084;44.716;10.218;2022-10-16T07:02:38;14.82;;;8.13;;
32693;SDS011;19084;44.716;10.218;2022-10-16T07:05:11;13.38;;;8.25;;
32693;SDS011;19084;44.716;10.218;2022-10-16T07:07:44;15.25;;;8.48;;
32693;SDS011;19084;44.716;10.218;2022-10-16T07:10:16;12.68;;;8.80;;
32693;SDS011;19084;44.716;10.218;2022-10-16T07:12:49;15.57;;;8.68;;
32693;SDS011;19084;44.716;10.218;2022-10-16T07:15:22;14.38;;;9.25;;
32693;SDS011;19084;44.716;10.218;2022-10-16T07:17:54;14.32;;;9.50;;
32693;SDS011;19084;44.716;10.218;2022-10-16T07:20:27;14.55;;;8.75;;
32693;SDS011;19084;44.716;10.218;2022-10-16T07:23:00;17.88;;;10.20;;
32693;SDS011;19084;44.716;10.218;2022-10-16T07:25:32;18.23;;;10.38;;
32693;SDS011;19084;44.716;10.218;2022-10-16T07:28:05;24.45;;;12.15;;
32693;SDS011;19084;44.716;10.218;2022-10-16T07:30:38;18.42;;;11.15;;
32693;SDS011;19084;44.716;10.218;2022-10-16T07:33:10;21.08;;;11.07;;
32693;SDS011;19084;44.716;10.218;2022-10-16T07:35:50;15.70;;;10.30;;
32693;SDS011;19084;44.716;10.218;2022-10-16T07:38:24;15.70;;;9.63;;
32693;SDS011;19084;44.716;10.218;2022-10-16T07:40:58;16.85;;;9.52;;
32693;SDS011;19084;44.716;10.218;2022-10-16T07:43:32;15.03;;;8.40;;
32693;SDS011;19084;44.716;10.218;2022-10-16T07:46:05;13.38;;;7.80;;
32693;SDS011;19084;44.716;10.218;2022-10-16T07:48:38;15.02;;;8.10;;
32693;SDS011;19084;44.716;10.218;2022-10-16T07:51:11;16.73;;;9.13;;
32693;SDS011;19084;44.716;10.218;2022-10-16T07:53:45;18.75;;;9.10;;
32693;SDS011;19084;44.716;10.218;2022-10-16T07:56:18;13.63;;;8.68;;
32693;SDS011;19084;44.716;10.218;2022-10-16T07:58:52;13.63;;;8.63;;
32693;SDS011;19084;44.716;10.218;2022-10-16T08:01:25;14.15;;;7.22;;
32693;SDS011;19084;44.716;10.218;2022-10-16T08:03:57;10.63;;;7.03;;
32693;SDS011;19084;44.716;10.218;2022-10-16T08:06:34;9.00;;;6.50;;
32693;SDS011;19084;44.716;10.218;2022-10-16T08:09:08;9.43;;;6.05;;
32693;SDS011;19084;44.716;10.218;2022-10-16T08:11:42;11.75;;;5.60;;
32693;SDS011;19084;44.716;10.218;2022-10-16T08:14:15;9.00;;;5.40;;
32693;SDS011;19084;44.716;10.218;2022-10-16T08:16:49;8.10;;;4.18;;
32693;SDS011;19084;44.716;10.218;2022-10-16T08:19:21;8.82;;;4.40;;
32693;SDS011;19084;44.716;10.218;2022-10-16T08:21:54;8.57;;;3.83;;
32693;SDS011;19084;44.716;10.218;2022-10-16T08:24:26;7.07;;;3.83;;
32693;SDS011;19084;44.716;10.218;2022-10-16T08:27:03;8.77;;;5.03;;
32693;SDS011;19084;44.716;10.218;2022-10-16T08:29:38;8.40;;;4.18;;
32693;SDS011;19084;44.716;10.218;2022-10-16T08:32:12;10.25;;;4.50;;
32693;SDS011;19084;44.716;10.218;2022-10-16T08:34:44;11.65;;;5.18;;
32693;SDS011;19084;44.716;10.218;2022-10-16T08:37:17;11.18;;;4.32;;
32693;SDS011;19084;44.716;10.218;2022-10-16T08:39:50;8.73;;;5.05;;
32693;SDS011;19084;44.716;10.218;2022-10-16T08:47:43;23.63;;;13.70;;
32693;SDS011;19084;44.716;10.218;2022-10-16T08:50:27;21.92;;;14.35;;
32693;SDS011;19084;44.716;10.218;2022-10-16T08:53:02;27.17;;;17.85;;
32693;SDS011;19084;44.716;10.218;2022-10-16T08:55:38;29.80;;;19.92;;
32693;SDS011;19084;44.716;10.218;2022-10-16T08:58:16;23.58;;;16.45;;
32693;SDS011;19084;44.716;10.218;2022-10-16T09:00:53;23.55;;;16.25;;
32693;SDS011;19084;44.716;10.218;2022-10-16T09:03:32;22.15;;;15.32;;
32693;SDS011;19084;44.716;10.218;2022-10-16T09:06:24;20.38;;;14.85;;
32693;SDS011;19084;44.716;10.218;2022-10-16T09:11:58;28.35;;;19.48;;
32693;SDS011;19084;44.716;10.218;2022-10-16T09:14:40;22.00;;;14.48;;
32693;SDS011;19084;44.716;10.218;2022-10-16T09:20:13;29.70;;;16.13;;
32693;SDS011;19084;44.716;10.218;2022-10-16T09:22:51;26.85;;;17.77;;
32693;SDS011;19084;44.716;10.218;2022-10-16T09:25:33;30.92;;;19.60;;
32693;SDS011;19084;44.716;10.218;2022-10-16T09:28:07;27.70;;;18.83;;
32693;SDS011;19084;44.716;10.218;2022-10-16T09:30:42;25.42;;;16.27;;
32693;SDS011;19084;44.716;10.218;2022-10-16T09:33:15;29.70;;;21.95;;
32693;SDS011;19084;44.716;10.218;2022-10-16T09:35:52;30.73;;;21.05;;
32693;SDS011;19084;44.716;10.218;2022-10-16T09:38:28;29.35;;;19.88;;
32693;SDS011;19084;44.716;10.218;2022-10-16T09:41:04;30.38;;;20.88;;
32693;SDS011;19084;44.716;10.218;2022-10-16T09:43:52;31.02;;;22.17;;
32693;SDS011;19084;44.716;10.218;2022-10-16T09:46:30;31.00;;;22.80;;
32693;SDS011;19084;44.716;10.218;2022-10-16T09:49:16;31.75;;;23.42;;
32693;SDS011;19084;44.716;10.218;2022-10-16T09:57:34;38.38;;;25.05;;
32693;SDS011;19084;44.716;10.218;2022-10-16T10:00:08;38.78;;;26.10;;
32693;SDS011;19084;44.716;10.218;2022-10-16T10:02:41;34.92;;;25.40;;
32693;SDS011;19084;44.716;10.218;2022-10-16T10:05:18;36.75;;;24.88;;
32693;SDS011;19084;44.716;10.218;2022-10-16T10:08:02;37.75;;;26.33;;
32693;SDS011;19084;44.716;10.218;2022-10-16T10:10:41;40.40;;;27.73;;
32693;SDS011;19084;44.716;10.218;2022-10-16T10:13:19;36.70;;;26.55;;
32693;SDS011;19084;44.716;10.218;2022-10-16T10:15:53;34.95;;;24.85;;
32693;SDS011;19084;44.716;10.218;2022-10-16T10:18:26;36.95;;;25.20;;
32693;SDS011;19084;44.716;10.218;2022-10-16T10:20:59;30.60;;;21.33;;
32693;SDS011;19084;44.716;10.218;2022-10-16T10:23:33;29.13;;;22.88;;
32693;SDS011;19084;44.716;10.218;2022-10-16T10:26:09;31.13;;;22.85;;
32693;SDS011;19084;44.716;10.218;2022-10-16T10:40:02;30.83;;;20.33;;
32693;SDS011;19084;44.716;10.218;2022-10-16T10:42:44;32.80;;;21.50;;
32693;SDS011;19084;44.716;10.218;2022-10-16T10:45:37;36.53;;;24.70;;
32693;SDS011;19084;44.716;10.218;2022-10-16T10:50:49;34.08;;;23.05;;
32693;SDS011;19084;44.716;10.218;2022-10-16T10:53:52;30.67;;;20.13;;
32693;SDS011;19084;44.716;10.218;2022-10-16T10:56:39;31.13;;;22.58;;
32693;SDS011;19084;44.716;10.218;2022-10-16T11:07:55;30.45;;;22.45;;
32693;SDS011;19084;44.716;10.218;2022-10-16T11:13:30;29.65;;;21.90;;
32693;SDS011;19084;44.716;10.218;2022-10-16T11:16:10;33.88;;;21.77;;
32693;SDS011;19084;44.716;10.218;2022-10-16T11:21:43;29.25;;;21.23;;
32693;SDS011;19084;44.716;10.218;2022-10-16T11:24:34;31.50;;;22.63;;
32693;SDS011;19084;44.716;10.218;2022-10-16T11:27:28;35.05;;;24.33;;
32693;SDS011;19084;44.716;10.218;2022-10-16T11:30:23;35.17;;;23.80;;
32693;SDS011;19084;44.716;10.218;2022-10-16T11:35:38;35.90;;;23.92;;
32693;SDS011;19084;44.716;10.218;2022-10-16T11:38:15;33.65;;;24.23;;
32693;SDS011;19084;44.716;10.218;2022-10-16T11:41:10;33.75;;;22.83;;
32693;SDS011;19084;44.716;10.218;2022-10-16T11:55:45;43.13;;;28.05;;
32693;SDS011;19084;44.716;10.218;2022-10-16T12:03:48;45.92;;;30.65;;
32693;SDS011;19084;44.716;10.218;2022-10-16T12:06:37;42.35;;;29.55;;
32693;SDS011;19084;44.716;10.218;2022-10-16T12:14:59;46.97;;;30.15;;
32693;SDS011;19084;44.716;10.218;2022-10-16T12:17:50;44.67;;;30.17;;
32693;SDS011;19084;44.716;10.218;2022-10-16T12:20:31;50.45;;;32.05;;
32693;SDS011;19084;44.716;10.218;2022-10-16T12:23:16;46.92;;;32.85;;
32693;SDS011;19084;44.716;10.218;2022-10-16T12:25:54;40.67;;;28.98;;
32693;SDS011;19084;44.716;10.218;2022-10-16T12:28:30;46.83;;;30.40;;
32693;SDS011;19084;44.716;10.218;2022-10-16T12:31:05;41.70;;;28.67;;
32693;SDS011;19084;44.716;10.218;2022-10-16T12:33:56;40.58;;;28.67;;
32693;SDS011;19084;44.716;10.218;2022-10-16T12:36:33;46.60;;;37.47;;
32693;SDS011;19084;44.716;10.218;2022-10-16T12:39:16;51.08;;;35.05;;
32693;SDS011;19084;44.716;10.218;2022-10-16T12:45:00;47.08;;;32.05;;
32693;SDS011;19084;44.716;10.218;2022-10-16T12:50:24;39.35;;;26.75;;
32693;SDS011;19084;44.716;10.218;2022-10-16T12:53:16;41.38;;;27.48;;
32693;SDS011;19084;44.716;10.218;2022-10-16T13:01:22;40.55;;;30.70;;
32693;SDS011;19084;44.716;10.218;2022-10-16T13:09:47;42.63;;;29.35;;
32693;SDS011;19084;44.716;10.218;2022-10-16T13:12:37;41.97;;;28.67;;
32693;SDS011;19084;44.716;10.218;2022-10-16T13:15:25;40.03;;;28.60;;
32693;SDS011;19084;44.716;10.218;2022-10-16T13:29:16;42.13;;;28.13;;
32693;SDS011;19084;44.716;10.218;2022-10-16T13:31:51;35.33;;;24.63;;
32693;SDS011;19084;44.716;10.218;2022-10-16T13:34:24;32.38;;;23.67;;
32693;SDS011;19084;44.716;10.218;2022-10-16T13:36:58;31.15;;;21.17;;
32693;SDS011;19084;44.716;10.218;2022-10-16T13:39:31;32.22;;;20.98;;
32693;SDS011;19084;44.716;10.218;2022-10-16T13:42:06;31.17;;;20.85;;
32693;SDS011;19084;44.716;10.218;2022-10-16T13:44:47;32.50;;;20.58;;
32693;SDS011;19084;44.716;10.218;2022-10-16T13:47:23;25.98;;;18.92;;
32693;SDS011;19084;44.716;10.218;2022-10-16T13:52:34;27.55;;;16.83;;
32693;SDS011;19084;44.716;10.218;2022-10-16T13:55:15;20.45;;;13.35;;
32693;SDS011;19084;44.716;10.218;2022-10-16T13:57:49;17.45;;;12.40;;
32693;SDS011;19084;44.716;10.218;2022-10-16T14:00:23;20.05;;;13.98;;
32693;SDS011;19084;44.716;10.218;2022-10-16T14:03:03;22.55;;;14.70;;
32693;SDS011;19084;44.716;10.218;2022-10-16T14:08:29;22.70;;;14.88;;
32693;SDS011;19084;44.716;10.218;2022-10-16T14:11:03;20.67;;;14.80;;
32693;SDS011;19084;44.716;10.218;2022-10-16T14:13:38;20.77;;;14.65;;
32693;SDS011;19084;44.716;10.218;2022-10-16T14:16:20;21.50;;;15.13;;
32693;SDS011;19084;44.716;10.218;2022-10-16T14:21:30;26.77;;;16.42;;
32693;SDS011;19084;44.716;10.218;2022-10-16T14:24:11;24.40;;;17.35;;
32693;SDS011;19084;44.716;10.218;2022-10-16T14:26:46;24.83;;;16.27;;
32693;SDS011;19084;44.716;10.218;2022-10-16T14:29:23;22.88;;;14.75;;
32693;SDS011;19084;44.716;10.218;2022-10-16T14:31:59;23.02;;;16.50;;
32693;SDS011;19084;44.716;10.218;2022-10-16T14:34:34;30.80;;;20.40;;
32693;SDS011;19084;44.716;10.218;2022-10-16T14:37:19;32.20;;;23.17;;
32693;SDS011;19084;44.716;10.218;2022-10-16T14:39:58;30.95;;;21.35;;
32693;SDS011;19084;44.716;10.218;2022-10-16T14:42:34;26.05;;;20.65;;
32693;SDS011;19084;44.716;10.218;2022-10-16T14:45:08;30.73;;;20.90;;
32693;SDS011;19084;44.716;10.218;2022-10-16T14:50:27;29.63;;;22.30;;
32693;SDS011;19084;44.716;10.218;2022-10-16T14:53:01;36.80;;;22.90;;
32693;SDS011;19084;44.716;10.218;2022-10-16T14:55:40;30.60;;;21.08;;
32693;SDS011;19084;44.716;10.218;2022-10-16T14:58:15;30.05;;;22.00;;
32693;SDS011;19084;44.716;10.218;2022-10-16T15:00:51;35.35;;;22.58;;
32693;SDS011;19084;44.716;10.218;2022-10-16T15:03:24;34.78;;;22.00;;
32693;SDS011;19084;44.716;10.218;2022-10-16T15:05:57;32.33;;;21.40;;
32693;SDS011;19084;44.716;10.218;2022-10-16T15:08:30;25.08;;;17.60;;
32693;SDS011;19084;44.716;10.218;2022-10-16T15:11:02;22.33;;;15.02;;
32693;SDS011;19084;44.716;10.218;2022-10-16T15:13:35;23.38;;;14.80;;
32693;SDS011;19084;44.716;10.218;2022-10-16T15:16:12;21.13;;;14.38;;
32693;SDS011;19084;44.716;10.218;2022-10-16T15:18:47;18.02;;;13.55;;
32693;SDS011;19084;44.716;10.218;2022-10-16T15:21:22;24.02;;;15.32;;
32693;SDS011;19084;44.716;10.218;2022-10-16T15:23:58;23.80;;;14.38;;
32693;SDS011;19084;44.716;10.218;2022-10-16T15:26:32;20.45;;;14.32;;
32693;SDS011;19084;44.716;10.218;2022-10-16T15:29:05;25.17;;;14.32;;
32693;SDS011;19084;44.716;10.218;2022-10-16T15:31:39;20.33;;;13.57;;
32693;SDS011;19084;44.716;10.218;2022-10-16T15:34:15;23.80;;;14.60;;
32693;SDS011;19084;44.716;10.218;2022-10-16T15:36:51;20.80;;;13.35;;
32693;SDS011;19084;44.716;10.218;2022-10-16T15:39:25;19.05;;;13.40;;
32693;SDS011;19084;44.716;10.218;2022-10-16T15:41:57;21.92;;;14.73;;
32693;SDS011;19084;44.716;10.218;2022-10-16T15:44:31;24.45;;;14.25;;
32693;SDS011;19084;44.716;10.218;2022-10-16T15:47:03;17.80;;;12.15;;
32693;SDS011;19084;44.716;10.218;2022-10-16T15:49:36;23.40;;;13.20;;
32693;SDS011;19084;44.716;10.218;2022-10-16T15:52:09;20.77;;;12.88;;
32693;SDS011;19084;44.716;10.218;2022-10-16T15:54:42;19.35;;;12.05;;
32693;SDS011;19084;44.716;10.218;2022-10-16T15:57:21;18.73;;;11.40;;
32693;SDS011;19084;44.716;10.218;2022-10-16T15:59:54;19.23;;;10.38;;
32693;SDS011;19084;44.716;10.218;2022-10-16T16:02:27;17.60;;;10.32;;
32693;SDS011;19084;44.716;10.218;2022-10-16T16:05:00;17.52;;;11.52;;
32693;SDS011;19084;44.716;10.218;2022-10-16T16:07:33;17.60;;;11.02;;
32693;SDS011;19084;44.716;10.218;2022-10-16T16:10:09;15.02;;;10.52;;
32693;SDS011;19084;44.716;10.218;2022-10-16T16:12:42;15.63;;;10.48;;
32693;SDS011;19084;44.716;10.218;2022-10-16T16:15:15;17.70;;;11.20;;
32693;SDS011;19084;44.716;10.218;2022-10-16T16:17:48;16.70;;;10.60;;
32693;SDS011;19084;44.716;10.218;2022-10-16T16:20:21;15.35;;;10.15;;
32693;SDS011;19084;44.716;10.218;2022-10-16T16:22:54;16.75;;;10.77;;
32693;SDS011;19084;44.716;10.218;2022-10-16T16:25:26;15.65;;;11.20;;
32693;SDS011;19084;44.716;10.218;2022-10-16T16:27:59;17.13;;;10.05;;
32693;SDS011;19084;44.716;10.218;2022-10-16T16:30:31;15.98;;;9.55;;
32693;SDS011;19084;44.716;10.218;2022-10-16T16:33:04;15.27;;;10.63;;
32693;SDS011;19084;44.716;10.218;2022-10-16T16:35:39;15.07;;;10.87;;
32693;SDS011;19084;44.716;10.218;2022-10-16T16:38:11;16.15;;;11.25;;
32693;SDS011;19084;44.716;10.218;2022-10-16T16:40:44;15.50;;;11.20;;
32693;SDS011;19084;44.716;10.218;2022-10-16T16:43:17;16.75;;;11.95;;
32693;SDS011;19084;44.716;10.218;2022-10-16T16:45:51;22.17;;;11.90;;
32693;SDS011;19084;44.716;10.218;2022-10-16T16:48:24;17.20;;;11.85;;
32693;SDS011;19084;44.716;10.218;2022-10-16T16:51:06;16.58;;;11.15;;
32693;SDS011;19084;44.716;10.218;2022-10-16T16:53:42;18.48;;;10.95;;
32693;SDS011;19084;44.716;10.218;2022-10-16T16:56:15;16.17;;;9.90;;
32693;SDS011;19084;44.716;10.218;2022-10-16T16:58:50;17.33;;;10.90;;
32693;SDS011;19084;44.716;10.218;2022-10-16T17:01:25;17.73;;;10.18;;
32693;SDS011;19084;44.716;10.218;2022-10-16T17:06:34;14.77;;;9.98;;
32693;SDS011;19084;44.716;10.218;2022-10-16T17:09:06;16.85;;;10.10;;
32693;SDS011;19084;44.716;10.218;2022-10-16T17:11:41;14.95;;;10.00;;
32693;SDS011;19084;44.716;10.218;2022-10-16T17:14:16;14.88;;;10.85;;